logo tempoitalia

Diretta Meteo Plainview Hale, Stati Uniti (USA)lunedì 31 agosto ore 01:35

Mappa
Sereno 25 °C Sereno 24 Ore: T.min 20 T.max 37
Ponente Sud Km/h 13 Punto di rugiada: 11 °C Umidità: 41% Visibilità: 10 Km
Il sole sorge alle: 07:19 Il sole tramonta alle: 20:14
31 Agosto 2026 01:35 tempo osservato: Sereno Sereno 25 41 1017 vento: Nord S 13
31 Agosto 2026 01:16 tempo osservato: Sereno Sereno 26 41 1017 vento: Nord S 16.7
31 Agosto 2026 00:55 tempo osservato: Sereno Sereno 26 39 1017 vento: Nord S 16.7
31 Agosto 2026 00:35 tempo osservato: Sereno Sereno 26 39 1017 vento: Nord S 16.7
31 Agosto 2026 00:15 tempo osservato: Sereno Sereno 27 36 1017 vento: Nord S 16.7
30 Agosto 2026 23:55 tempo osservato: Sereno Sereno 27 36 1016 vento: Nord S 18.5
30 Agosto 2026 23:35 tempo osservato: Sereno Sereno 28 34 1016 vento: Nord S 16.7
30 Agosto 2026 23:15 tempo osservato: Sereno Sereno 27 34 1016 vento: Nord S 14.8
30 Agosto 2026 22:55 tempo osservato: Sereno Sereno 27 36 1016 vento: Nord S/SE 14.8
30 Agosto 2026 22:35 tempo osservato: Sereno Sereno 27 34 1016 vento: Nord S/SE 24
30 Agosto 2026 22:15 tempo osservato: Sereno Sereno 27 34 1016 vento: Nord S/SE 16.7
30 Agosto 2026 21:55 tempo osservato: Sereno Sereno 28 32 1016 vento: Nord S 16.7
30 Agosto 2026 21:35 tempo osservato: Sereno Sereno 29 30 1016 vento: Nord S 16.7
30 Agosto 2026 21:15 tempo osservato: Sereno Sereno 28 32 1016 vento: Nord S 14.8
30 Agosto 2026 20:55 tempo osservato: Sereno Sereno 30 28 1015 vento: Nord S 13
30 Agosto 2026 20:35 tempo osservato: Sereno Sereno 31 27 1015 vento: Nord S/SE 13
30 Agosto 2026 20:15 tempo osservato: Sereno Sereno 32 25 1015 vento: Nord S/SE 14.8
30 Agosto 2026 19:55 tempo osservato: Sereno Sereno 34 23 1015 vento: Nord S/SE 13
30 Agosto 2026 19:35 tempo osservato: Sereno Sereno 35 21 1015 vento: Nord S/SE 16.7
30 Agosto 2026 19:15 tempo osservato: Sereno Sereno 35 21 1015 vento: Nord S 18.5
30 Agosto 2026 18:55 tempo osservato: Sereno Sereno 36 22 1015 vento: Nord S 18.5
30 Agosto 2026 18:35 tempo osservato: Sereno Sereno 36 22 1015 vento: Nord S/SE 25.9
30 Agosto 2026 18:15 tempo osservato: Sereno Sereno 36 22 1015 vento: Nord S 20.3
30 Agosto 2026 17:55 tempo osservato: Sereno Sereno 37 20 1015 vento: Nord S/SE 22.2
30 Agosto 2026 17:35 tempo osservato: Sereno Sereno 36 20 1015 vento: Nord S/SO 20.3
30 Agosto 2026 17:15 tempo osservato: Sereno Sereno 37 20 1015 vento: Nord S 22.2
30 Agosto 2026 16:55 tempo osservato: Sereno Sereno 37 19 1015 vento: Nord S 20.3
30 Agosto 2026 16:35 tempo osservato: Sereno Sereno 37 19 1015 vento: Nord S 22.2
30 Agosto 2026 16:15 tempo osservato: Sereno Sereno 36 20 1016 vento: Nord S/SO 24
30 Agosto 2026 15:55 tempo osservato: Sereno Sereno 37 20 1016 vento: Nord S 22.2
30 Agosto 2026 15:35 tempo osservato: Sereno Sereno 37 20 1016 vento: Nord S 25.9
30 Agosto 2026 15:15 tempo osservato: Sereno Sereno 37 20 1016 vento: Nord S 22.2
30 Agosto 2026 14:55 tempo osservato: Sereno Sereno 36 23 1017 vento: Nord S 22.2
30 Agosto 2026 14:35 tempo osservato: Sereno Sereno 36 23 1017 vento: Nord S 24
30 Agosto 2026 14:15 tempo osservato: Sereno Sereno 35 24 1017 vento: Nord S 33.3
30 Agosto 2026 13:55 tempo osservato: Sereno Sereno 36 23 1017 vento: Nord S/SO 29.6
30 Agosto 2026 13:35 tempo osservato: Sereno Sereno 36 22 1017 vento: Nord S 22.2
30 Agosto 2026 13:15 tempo osservato: Sereno Sereno 35 23 1018 vento: Nord S 22.2
30 Agosto 2026 12:55 tempo osservato: Sereno Sereno 35 24 1018 vento: Nord S/SO 18.5
30 Agosto 2026 12:35 tempo osservato: Sereno Sereno 35 24 1018 vento: Nord S/SO 25.9
30 Agosto 2026 12:15 tempo osservato: Sereno Sereno 34 28 1019 vento: Nord S/SO 20.3
30 Agosto 2026 11:55 tempo osservato: Sereno Sereno 33 31 1018 vento: Nord S/SO 24
30 Agosto 2026 11:35 tempo osservato: Sereno Sereno 32 35 1019 vento: Nord S/SO 25.9
30 Agosto 2026 11:15 tempo osservato: Sereno Sereno 31 37 1019 vento: Nord SO 29.6
30 Agosto 2026 10:55 tempo osservato: Sereno Sereno 31 40 1019 vento: Nord SO 25.9
30 Agosto 2026 10:35 tempo osservato: Sereno Sereno 30 42 1019 vento: Nord SO 29.6
30 Agosto 2026 10:15 tempo osservato: Sereno Sereno 29 42 1019 vento: Nord SO 35.2
30 Agosto 2026 09:56 tempo osservato: Sereno Sereno 28 45 1019 vento: Nord S/SO 35.2
30 Agosto 2026 09:35 tempo osservato: Sereno Sereno 27 47 1019 vento: Nord SO 31.5
30 Agosto 2026 09:15 tempo osservato: Sereno Sereno 26 50 1019 vento: Nord S/SO 27.8
30 Agosto 2026 08:55 tempo osservato: Sereno Sereno 25 53 1019 vento: Nord SO 20.3
30 Agosto 2026 08:35 tempo osservato: Sereno Sereno 23 56 1019 vento: Nord SO 13
30 Agosto 2026 08:15 tempo osservato: Sereno Sereno 22 60 1019 vento: Nord SO 13
30 Agosto 2026 07:55 tempo osservato: Sereno Sereno 21 60 1019 vento: Nord SO 11.1
30 Agosto 2026 07:35 tempo osservato: Sereno Sereno 20 64 1018 vento: Nord S/SO 13
30 Agosto 2026 07:15 tempo osservato: Sereno Sereno 21 60 1018 vento: Nord S/SO 11.1
30 Agosto 2026 06:55 tempo osservato: Sereno Sereno 21 60 1018 vento: Nord S/SO 11.1
30 Agosto 2026 06:35 tempo osservato: Sereno Sereno 21 60 1018 vento: Nord SO 13
30 Agosto 2026 06:15 tempo osservato: Sereno Sereno 21 60 1018 vento: Nord S/SO 13
30 Agosto 2026 05:55 tempo osservato: Sereno Sereno 21 60 1018 vento: Nord S/SO 16.7
30 Agosto 2026 05:35 tempo osservato: Sereno Sereno 22 53 1017 vento: Nord S/SO 14.8
30 Agosto 2026 05:15 tempo osservato: Sereno Sereno 22 53 1017 vento: Nord S/SO 14.8
30 Agosto 2026 04:55 tempo osservato: Sereno Sereno 21 52 1017 vento: Nord S/SO 11.1
30 Agosto 2026 04:35 tempo osservato: Sereno Sereno 21 52 1017 vento: Nord S/SO 7.4
30 Agosto 2026 04:15 tempo osservato: Sereno Sereno 21 52 1017 vento: Nord S/SO 7.4
30 Agosto 2026 03:55 tempo osservato: Sereno Sereno 22 53 1017 vento: Nord S/SO 9.3
30 Agosto 2026 03:35 tempo osservato: Sereno Sereno 23 49 1017 vento: Nord S 11.1
30 Agosto 2026 03:15 tempo osservato: Sereno Sereno 24 47 1017 vento: Nord S 14.8
30 Agosto 2026 02:55 tempo osservato: Sereno Sereno 24 47 1017 vento: Nord S 16.7
30 Agosto 2026 02:35 tempo osservato: Sereno Sereno 24 43 1017 vento: Nord S 16.7
30 Agosto 2026 02:15 tempo osservato: Sereno Sereno 25 41 1017 vento: Nord S 13
30 Agosto 2026 01:55 tempo osservato: Sereno Sereno 25 41 1017 vento: Nord S 14.8
30 Agosto 2026 01:35 tempo osservato: Sereno Sereno 26 39 1018 vento: Nord S 16.7